sensor_id;sensor_type;location;lat;lon;timestamp;P1;durP1;ratioP1;P2;durP2;ratioP2
48552;SDS011;34335;51.566;6.994;2024-02-21T00:01:21;16.45;;;4.70;;
48552;SDS011;34335;51.566;6.994;2024-02-21T00:03:46;16.17;;;6.30;;
48552;SDS011;34335;51.566;6.994;2024-02-21T00:06:11;12.30;;;4.77;;
48552;SDS011;34335;51.566;6.994;2024-02-21T00:08:37;17.73;;;6.33;;
48552;SDS011;34335;51.566;6.994;2024-02-21T00:11:02;20.15;;;6.32;;
48552;SDS011;34335;51.566;6.994;2024-02-21T00:13:27;7.50;;;3.20;;
48552;SDS011;34335;51.566;6.994;2024-02-21T00:15:52;21.20;;;6.20;;
48552;SDS011;34335;51.566;6.994;2024-02-21T00:18:17;8.03;;;4.77;;
48552;SDS011;34335;51.566;6.994;2024-02-21T00:20:43;11.43;;;5.10;;
48552;SDS011;34335;51.566;6.994;2024-02-21T00:23:08;12.10;;;5.60;;
48552;SDS011;34335;51.566;6.994;2024-02-21T00:25:33;11.90;;;5.63;;
48552;SDS011;34335;51.566;6.994;2024-02-21T00:27:58;11.50;;;4.40;;
48552;SDS011;34335;51.566;6.994;2024-02-21T00:30:23;13.17;;;4.27;;
48552;SDS011;34335;51.566;6.994;2024-02-21T00:32:49;20.27;;;5.87;;
48552;SDS011;34335;51.566;6.994;2024-02-21T00:35:14;10.13;;;4.97;;
48552;SDS011;34335;51.566;6.994;2024-02-21T00:37:39;9.73;;;4.80;;
48552;SDS011;34335;51.566;6.994;2024-02-21T00:40:05;10.23;;;5.10;;
48552;SDS011;34335;51.566;6.994;2024-02-21T00:42:30;11.77;;;5.90;;
48552;SDS011;34335;51.566;6.994;2024-02-21T00:44:55;17.43;;;6.47;;
48552;SDS011;34335;51.566;6.994;2024-02-21T00:47:20;13.33;;;4.47;;
48552;SDS011;34335;51.566;6.994;2024-02-21T00:49:46;12.82;;;5.20;;
48552;SDS011;34335;51.566;6.994;2024-02-21T00:52:11;26.80;;;4.93;;
48552;SDS011;34335;51.566;6.994;2024-02-21T00:54:36;8.10;;;4.73;;
48552;SDS011;34335;51.566;6.994;2024-02-21T00:57:01;16.80;;;6.17;;
48552;SDS011;34335;51.566;6.994;2024-02-21T00:59:26;11.40;;;4.87;;
48552;SDS011;34335;51.566;6.994;2024-02-21T01:01:52;13.03;;;4.93;;
48552;SDS011;34335;51.566;6.994;2024-02-21T01:04:17;14.57;;;5.77;;
48552;SDS011;34335;51.566;6.994;2024-02-21T01:06:42;11.20;;;5.23;;
48552;SDS011;34335;51.566;6.994;2024-02-21T01:09:09;10.13;;;4.50;;
48552;SDS011;34335;51.566;6.994;2024-02-21T01:11:34;14.65;;;5.25;;
48552;SDS011;34335;51.566;6.994;2024-02-21T01:13:59;16.40;;;4.30;;
48552;SDS011;34335;51.566;6.994;2024-02-21T01:16:25;15.87;;;6.70;;
48552;SDS011;34335;51.566;6.994;2024-02-21T01:18:50;12.88;;;5.68;;
48552;SDS011;34335;51.566;6.994;2024-02-21T01:21:15;17.23;;;6.30;;
48552;SDS011;34335;51.566;6.994;2024-02-21T01:23:40;19.30;;;5.07;;
48552;SDS011;34335;51.566;6.994;2024-02-21T01:26:06;17.10;;;5.23;;
48552;SDS011;34335;51.566;6.994;2024-02-21T01:28:33;14.20;;;6.30;;
48552;SDS011;34335;51.566;6.994;2024-02-21T01:30:58;10.82;;;5.30;;
48552;SDS011;34335;51.566;6.994;2024-02-21T01:33:23;16.60;;;5.27;;
48552;SDS011;34335;51.566;6.994;2024-02-21T01:35:48;13.13;;;4.73;;
48552;SDS011;34335;51.566;6.994;2024-02-21T01:38:15;12.38;;;5.38;;
48552;SDS011;34335;51.566;6.994;2024-02-21T01:40:40;22.03;;;5.63;;
48552;SDS011;34335;51.566;6.994;2024-02-21T01:43:14;13.83;;;5.37;;
48552;SDS011;34335;51.566;6.994;2024-02-21T01:45:39;14.10;;;6.03;;
48552;SDS011;34335;51.566;6.994;2024-02-21T01:48:05;8.30;;;4.10;;
48552;SDS011;34335;51.566;6.994;2024-02-21T01:50:31;17.08;;;6.93;;
48552;SDS011;34335;51.566;6.994;2024-02-21T01:52:56;16.50;;;5.37;;
48552;SDS011;34335;51.566;6.994;2024-02-21T01:55:21;14.20;;;5.50;;
48552;SDS011;34335;51.566;6.994;2024-02-21T01:57:47;10.00;;;4.37;;
48552;SDS011;34335;51.566;6.994;2024-02-21T02:00:15;22.33;;;4.97;;
48552;SDS011;34335;51.566;6.994;2024-02-21T02:02:41;15.32;;;6.25;;
48552;SDS011;34335;51.566;6.994;2024-02-21T02:05:07;11.73;;;3.78;;
48552;SDS011;34335;51.566;6.994;2024-02-21T02:07:32;13.90;;;4.93;;
48552;SDS011;34335;51.566;6.994;2024-02-21T02:09:58;12.17;;;4.17;;
48552;SDS011;34335;51.566;6.994;2024-02-21T02:12:23;14.20;;;4.07;;
48552;SDS011;34335;51.566;6.994;2024-02-21T02:14:58;19.35;;;5.60;;
48552;SDS011;34335;51.566;6.994;2024-02-21T02:17:24;12.45;;;4.65;;
48552;SDS011;34335;51.566;6.994;2024-02-21T02:19:49;8.80;;;3.77;;
48552;SDS011;34335;51.566;6.994;2024-02-21T02:22:15;8.83;;;4.53;;
48552;SDS011;34335;51.566;6.994;2024-02-21T02:24:44;11.15;;;4.60;;
48552;SDS011;34335;51.566;6.994;2024-02-21T02:27:10;13.55;;;5.10;;
48552;SDS011;34335;51.566;6.994;2024-02-21T02:29:35;9.47;;;4.10;;
48552;SDS011;34335;51.566;6.994;2024-02-21T02:32:00;10.83;;;4.60;;
48552;SDS011;34335;51.566;6.994;2024-02-21T02:34:25;10.00;;;4.35;;
48552;SDS011;34335;51.566;6.994;2024-02-21T02:36:51;10.85;;;4.60;;
48552;SDS011;34335;51.566;6.994;2024-02-21T02:39:16;13.60;;;4.93;;
48552;SDS011;34335;51.566;6.994;2024-02-21T02:41:41;12.53;;;5.30;;
48552;SDS011;34335;51.566;6.994;2024-02-21T02:44:06;7.43;;;3.80;;
48552;SDS011;34335;51.566;6.994;2024-02-21T02:46:34;11.83;;;4.57;;
48552;SDS011;34335;51.566;6.994;2024-02-21T02:49:00;17.08;;;4.72;;
48552;SDS011;34335;51.566;6.994;2024-02-21T02:51:25;11.93;;;3.93;;
48552;SDS011;34335;51.566;6.994;2024-02-21T02:53:50;13.10;;;5.17;;
48552;SDS011;34335;51.566;6.994;2024-02-21T02:56:15;8.90;;;4.67;;
48552;SDS011;34335;51.566;6.994;2024-02-21T02:58:41;16.37;;;4.27;;
48552;SDS011;34335;51.566;6.994;2024-02-21T03:01:07;13.15;;;4.68;;
48552;SDS011;34335;51.566;6.994;2024-02-21T03:03:32;16.80;;;4.77;;
48552;SDS011;34335;51.566;6.994;2024-02-21T03:05:57;14.60;;;5.10;;
48552;SDS011;34335;51.566;6.994;2024-02-21T03:08:22;12.20;;;4.47;;
48552;SDS011;34335;51.566;6.994;2024-02-21T03:10:50;8.07;;;3.53;;
48552;SDS011;34335;51.566;6.994;2024-02-21T03:13:15;7.47;;;4.03;;
48552;SDS011;34335;51.566;6.994;2024-02-21T03:15:41;12.63;;;4.60;;
48552;SDS011;34335;51.566;6.994;2024-02-21T03:18:06;12.40;;;4.18;;
48552;SDS011;34335;51.566;6.994;2024-02-21T03:20:31;16.37;;;5.40;;
48552;SDS011;34335;51.566;6.994;2024-02-21T03:22:57;13.30;;;5.35;;
48552;SDS011;34335;51.566;6.994;2024-02-21T03:25:22;10.95;;;4.32;;
48552;SDS011;34335;51.566;6.994;2024-02-21T03:27:47;12.00;;;4.87;;
48552;SDS011;34335;51.566;6.994;2024-02-21T03:30:13;7.43;;;3.87;;
48552;SDS011;34335;51.566;6.994;2024-02-21T03:32:38;6.23;;;2.87;;
48552;SDS011;34335;51.566;6.994;2024-02-21T03:35:04;11.30;;;4.65;;
48552;SDS011;34335;51.566;6.994;2024-02-21T03:37:29;9.43;;;3.67;;
48552;SDS011;34335;51.566;6.994;2024-02-21T03:39:54;15.27;;;5.77;;
48552;SDS011;34335;51.566;6.994;2024-02-21T03:42:20;8.88;;;4.10;;
48552;SDS011;34335;51.566;6.994;2024-02-21T03:44:45;12.43;;;3.37;;
48552;SDS011;34335;51.566;6.994;2024-02-21T03:47:10;11.50;;;3.50;;
48552;SDS011;34335;51.566;6.994;2024-02-21T03:49:36;14.70;;;4.60;;
48552;SDS011;34335;51.566;6.994;2024-02-21T03:52:02;11.90;;;4.70;;
48552;SDS011;34335;51.566;6.994;2024-02-21T03:54:27;12.80;;;3.75;;
48552;SDS011;34335;51.566;6.994;2024-02-21T03:56:52;9.73;;;4.00;;
48552;SDS011;34335;51.566;6.994;2024-02-21T03:59:17;11.00;;;4.67;;
48552;SDS011;34335;51.566;6.994;2024-02-21T04:01:43;8.18;;;3.33;;
48552;SDS011;34335;51.566;6.994;2024-02-21T04:04:09;12.40;;;4.18;;
48552;SDS011;34335;51.566;6.994;2024-02-21T04:06:34;13.48;;;4.40;;
48552;SDS011;34335;51.566;6.994;2024-02-21T04:08:59;14.17;;;4.30;;
48552;SDS011;34335;51.566;6.994;2024-02-21T04:11:24;16.33;;;4.40;;
48552;SDS011;34335;51.566;6.994;2024-02-21T04:13:50;12.83;;;4.77;;
48552;SDS011;34335;51.566;6.994;2024-02-21T04:16:16;15.70;;;5.13;;
48552;SDS011;34335;51.566;6.994;2024-02-21T04:18:41;12.13;;;3.92;;
48552;SDS011;34335;51.566;6.994;2024-02-21T04:21:07;8.90;;;4.10;;
48552;SDS011;34335;51.566;6.994;2024-02-21T04:23:32;9.40;;;4.43;;
48552;SDS011;34335;51.566;6.994;2024-02-21T04:25:57;12.93;;;4.03;;
48552;SDS011;34335;51.566;6.994;2024-02-21T04:28:22;6.67;;;4.07;;
48552;SDS011;34335;51.566;6.994;2024-02-21T04:30:47;8.02;;;4.32;;
48552;SDS011;34335;51.566;6.994;2024-02-21T04:33:13;10.37;;;4.50;;
48552;SDS011;34335;51.566;6.994;2024-02-21T04:35:38;8.53;;;3.97;;
48552;SDS011;34335;51.566;6.994;2024-02-21T04:38:04;9.35;;;3.80;;
48552;SDS011;34335;51.566;6.994;2024-02-21T04:40:29;10.60;;;3.77;;
48552;SDS011;34335;51.566;6.994;2024-02-21T04:42:55;11.85;;;3.92;;
48552;SDS011;34335;51.566;6.994;2024-02-21T04:45:20;10.10;;;3.83;;
48552;SDS011;34335;51.566;6.994;2024-02-21T04:47:45;6.85;;;3.40;;
48552;SDS011;34335;51.566;6.994;2024-02-21T04:50:10;6.50;;;3.87;;
48552;SDS011;34335;51.566;6.994;2024-02-21T04:52:36;9.00;;;3.40;;
48552;SDS011;34335;51.566;6.994;2024-02-21T04:55:01;6.78;;;4.20;;
48552;SDS011;34335;51.566;6.994;2024-02-21T04:57:26;10.10;;;4.07;;
48552;SDS011;34335;51.566;6.994;2024-02-21T04:59:51;9.33;;;3.63;;
48552;SDS011;34335;51.566;6.994;2024-02-21T05:02:16;12.55;;;3.83;;
48552;SDS011;34335;51.566;6.994;2024-02-21T05:04:42;9.53;;;4.13;;
48552;SDS011;34335;51.566;6.994;2024-02-21T05:07:07;7.60;;;3.85;;
48552;SDS011;34335;51.566;6.994;2024-02-21T05:09:32;10.60;;;3.42;;
48552;SDS011;34335;51.566;6.994;2024-02-21T05:11:58;7.33;;;3.10;;
48552;SDS011;34335;51.566;6.994;2024-02-21T05:14:26;9.35;;;4.03;;
48552;SDS011;34335;51.566;6.994;2024-02-21T05:16:54;14.27;;;3.92;;
48552;SDS011;34335;51.566;6.994;2024-02-21T05:19:19;7.00;;;3.38;;
48552;SDS011;34335;51.566;6.994;2024-02-21T05:21:45;9.57;;;3.10;;
48552;SDS011;34335;51.566;6.994;2024-02-21T05:24:10;9.37;;;3.33;;
48552;SDS011;34335;51.566;6.994;2024-02-21T05:26:35;10.18;;;4.80;;
48552;SDS011;34335;51.566;6.994;2024-02-21T05:29:00;11.03;;;3.37;;
48552;SDS011;34335;51.566;6.994;2024-02-21T05:31:26;9.77;;;3.50;;
48552;SDS011;34335;51.566;6.994;2024-02-21T05:33:51;12.32;;;3.67;;
48552;SDS011;34335;51.566;6.994;2024-02-21T05:36:16;6.55;;;2.95;;
48552;SDS011;34335;51.566;6.994;2024-02-21T05:38:41;7.87;;;3.07;;
48552;SDS011;34335;51.566;6.994;2024-02-21T05:41:07;13.03;;;4.80;;
48552;SDS011;34335;51.566;6.994;2024-02-21T05:43:32;9.18;;;3.08;;
48552;SDS011;34335;51.566;6.994;2024-02-21T05:45:57;10.63;;;4.07;;
48552;SDS011;34335;51.566;6.994;2024-02-21T05:48:23;11.15;;;2.83;;
48552;SDS011;34335;51.566;6.994;2024-02-21T05:50:48;7.07;;;4.10;;
48552;SDS011;34335;51.566;6.994;2024-02-21T05:53:13;13.50;;;4.23;;
48552;SDS011;34335;51.566;6.994;2024-02-21T05:55:38;6.47;;;2.75;;
48552;SDS011;34335;51.566;6.994;2024-02-21T05:58:04;9.37;;;3.63;;
48552;SDS011;34335;51.566;6.994;2024-02-21T06:00:29;8.53;;;3.13;;
48552;SDS011;34335;51.566;6.994;2024-02-21T06:02:55;8.20;;;4.00;;
48552;SDS011;34335;51.566;6.994;2024-02-21T06:05:20;7.50;;;3.53;;
48552;SDS011;34335;51.566;6.994;2024-02-21T06:07:45;5.43;;;3.30;;
48552;SDS011;34335;51.566;6.994;2024-02-21T06:10:10;6.60;;;3.17;;
48552;SDS011;34335;51.566;6.994;2024-02-21T06:12:35;7.30;;;3.20;;
48552;SDS011;34335;51.566;6.994;2024-02-21T06:15:00;10.30;;;2.73;;
48552;SDS011;34335;51.566;6.994;2024-02-21T06:17:26;5.83;;;2.47;;
48552;SDS011;34335;51.566;6.994;2024-02-21T06:19:51;5.67;;;3.57;;
48552;SDS011;34335;51.566;6.994;2024-02-21T06:22:16;9.40;;;3.17;;
48552;SDS011;34335;51.566;6.994;2024-02-21T06:24:41;8.67;;;3.27;;
48552;SDS011;34335;51.566;6.994;2024-02-21T06:27:06;6.67;;;3.37;;
48552;SDS011;34335;51.566;6.994;2024-02-21T06:29:32;9.43;;;2.87;;
48552;SDS011;34335;51.566;6.994;2024-02-21T06:31:57;5.47;;;2.15;;
48552;SDS011;34335;51.566;6.994;2024-02-21T06:34:22;8.97;;;2.53;;
48552;SDS011;34335;51.566;6.994;2024-02-21T06:36:49;7.10;;;2.88;;
48552;SDS011;34335;51.566;6.994;2024-02-21T06:39:14;6.80;;;2.55;;
48552;SDS011;34335;51.566;6.994;2024-02-21T06:41:39;6.88;;;3.13;;
48552;SDS011;34335;51.566;6.994;2024-02-21T06:44:05;9.00;;;2.88;;
48552;SDS011;34335;51.566;6.994;2024-02-21T06:46:30;7.43;;;3.40;;
48552;SDS011;34335;51.566;6.994;2024-02-21T06:48:56;5.97;;;2.63;;
48552;SDS011;34335;51.566;6.994;2024-02-21T06:51:22;7.00;;;2.88;;
48552;SDS011;34335;51.566;6.994;2024-02-21T06:53:47;8.82;;;3.13;;
48552;SDS011;34335;51.566;6.994;2024-02-21T06:56:12;10.32;;;2.22;;
48552;SDS011;34335;51.566;6.994;2024-02-21T06:58:38;13.48;;;3.50;;
48552;SDS011;34335;51.566;6.994;2024-02-21T07:01:03;4.97;;;2.40;;
48552;SDS011;34335;51.566;6.994;2024-02-21T07:03:28;9.80;;;2.20;;
48552;SDS011;34335;51.566;6.994;2024-02-21T07:05:53;4.90;;;2.13;;
48552;SDS011;34335;51.566;6.994;2024-02-21T07:08:37;5.43;;;2.58;;
48552;SDS011;34335;51.566;6.994;2024-02-21T07:11:03;6.60;;;2.45;;
48552;SDS011;34335;51.566;6.994;2024-02-21T07:13:29;9.63;;;3.50;;
48552;SDS011;34335;51.566;6.994;2024-02-21T07:15:54;10.00;;;3.57;;
48552;SDS011;34335;51.566;6.994;2024-02-21T07:18:19;5.27;;;2.60;;
48552;SDS011;34335;51.566;6.994;2024-02-21T07:20:45;9.35;;;3.17;;
48552;SDS011;34335;51.566;6.994;2024-02-21T07:23:10;11.43;;;3.67;;
48552;SDS011;34335;51.566;6.994;2024-02-21T07:25:35;4.83;;;2.43;;
48552;SDS011;34335;51.566;6.994;2024-02-21T07:28:00;8.03;;;3.50;;
48552;SDS011;34335;51.566;6.994;2024-02-21T07:30:26;15.57;;;3.00;;
48552;SDS011;34335;51.566;6.994;2024-02-21T07:32:51;9.23;;;4.00;;
48552;SDS011;34335;51.566;6.994;2024-02-21T07:35:19;11.43;;;4.03;;
48552;SDS011;34335;51.566;6.994;2024-02-21T07:37:45;8.45;;;2.63;;
48552;SDS011;34335;51.566;6.994;2024-02-21T07:40:13;4.82;;;2.78;;
48552;SDS011;34335;51.566;6.994;2024-02-21T07:42:39;9.38;;;2.63;;
48552;SDS011;34335;51.566;6.994;2024-02-21T07:45:04;8.37;;;3.43;;
48552;SDS011;34335;51.566;6.994;2024-02-21T07:47:29;6.88;;;3.15;;
48552;SDS011;34335;51.566;6.994;2024-02-21T07:49:54;7.90;;;3.17;;
48552;SDS011;34335;51.566;6.994;2024-02-21T07:52:20;6.60;;;2.60;;
48552;SDS011;34335;51.566;6.994;2024-02-21T07:54:45;6.90;;;2.77;;
48552;SDS011;34335;51.566;6.994;2024-02-21T07:57:10;11.43;;;2.53;;
48552;SDS011;34335;51.566;6.994;2024-02-21T07:59:35;8.33;;;2.53;;
48552;SDS011;34335;51.566;6.994;2024-02-21T08:02:00;7.63;;;3.00;;
48552;SDS011;34335;51.566;6.994;2024-02-21T08:04:25;8.43;;;2.83;;
48552;SDS011;34335;51.566;6.994;2024-02-21T08:06:52;4.97;;;2.27;;
48552;SDS011;34335;51.566;6.994;2024-02-21T08:09:18;4.55;;;2.42;;
48552;SDS011;34335;51.566;6.994;2024-02-21T08:11:43;10.40;;;2.90;;
48552;SDS011;34335;51.566;6.994;2024-02-21T08:14:08;7.75;;;3.40;;
48552;SDS011;34335;51.566;6.994;2024-02-21T08:16:33;6.75;;;2.63;;
48552;SDS011;34335;51.566;6.994;2024-02-21T08:18:59;6.35;;;3.17;;
48552;SDS011;34335;51.566;6.994;2024-02-21T08:21:24;6.00;;;2.67;;
48552;SDS011;34335;51.566;6.994;2024-02-21T08:23:49;6.05;;;2.08;;
48552;SDS011;34335;51.566;6.994;2024-02-21T08:26:16;6.43;;;3.17;;
48552;SDS011;34335;51.566;6.994;2024-02-21T08:28:41;8.03;;;2.80;;
48552;SDS011;34335;51.566;6.994;2024-02-21T08:31:07;6.83;;;1.93;;
48552;SDS011;34335;51.566;6.994;2024-02-21T08:33:32;7.80;;;1.67;;
48552;SDS011;34335;51.566;6.994;2024-02-21T08:35:57;5.33;;;2.57;;
48552;SDS011;34335;51.566;6.994;2024-02-21T08:38:22;4.83;;;2.27;;
48552;SDS011;34335;51.566;6.994;2024-02-21T08:40:48;5.28;;;2.13;;
48552;SDS011;34335;51.566;6.994;2024-02-21T08:43:13;11.93;;;2.30;;
48552;SDS011;34335;51.566;6.994;2024-02-21T08:45:38;1.77;;;1.15;;
48552;SDS011;34335;51.566;6.994;2024-02-21T08:48:04;5.73;;;2.60;;
48552;SDS011;34335;51.566;6.994;2024-02-21T08:50:29;5.22;;;2.33;;
48552;SDS011;34335;51.566;6.994;2024-02-21T08:52:54;4.83;;;1.80;;
48552;SDS011;34335;51.566;6.994;2024-02-21T08:55:20;3.05;;;1.50;;
48552;SDS011;34335;51.566;6.994;2024-02-21T08:57:45;5.33;;;1.87;;
48552;SDS011;34335;51.566;6.994;2024-02-21T09:00:10;4.43;;;2.53;;
48552;SDS011;34335;51.566;6.994;2024-02-21T09:02:40;7.18;;;2.17;;
48552;SDS011;34335;51.566;6.994;2024-02-21T09:05:05;7.47;;;1.88;;
48552;SDS011;34335;51.566;6.994;2024-02-21T09:07:30;13.98;;;4.45;;
48552;SDS011;34335;51.566;6.994;2024-02-21T09:09:55;7.70;;;2.30;;
48552;SDS011;34335;51.566;6.994;2024-02-21T09:12:21;5.53;;;2.30;;
48552;SDS011;34335;51.566;6.994;2024-02-21T09:14:46;10.30;;;2.17;;
48552;SDS011;34335;51.566;6.994;2024-02-21T09:17:14;7.10;;;2.22;;
48552;SDS011;34335;51.566;6.994;2024-02-21T09:19:40;11.25;;;2.00;;
48552;SDS011;34335;51.566;6.994;2024-02-21T09:22:05;7.70;;;2.15;;
48552;SDS011;34335;51.566;6.994;2024-02-21T09:24:31;6.80;;;2.80;;
48552;SDS011;34335;51.566;6.994;2024-02-21T09:26:56;4.97;;;1.97;;
48552;SDS011;34335;51.566;6.994;2024-02-21T09:29:21;3.70;;;1.73;;
48552;SDS011;34335;51.566;6.994;2024-02-21T09:31:46;8.50;;;2.40;;
48552;SDS011;34335;51.566;6.994;2024-02-21T09:34:12;4.97;;;2.13;;
48552;SDS011;34335;51.566;6.994;2024-02-21T09:36:38;6.53;;;1.70;;
48552;SDS011;34335;51.566;6.994;2024-02-21T09:39:05;3.65;;;1.95;;
48552;SDS011;34335;51.566;6.994;2024-02-21T09:41:30;5.83;;;2.33;;
48552;SDS011;34335;51.566;6.994;2024-02-21T09:43:55;4.47;;;1.90;;
48552;SDS011;34335;51.566;6.994;2024-02-21T09:46:32;4.22;;;2.13;;
48552;SDS011;34335;51.566;6.994;2024-02-21T09:51:32;5.82;;;2.40;;
48552;SDS011;34335;51.566;6.994;2024-02-21T09:53:59;4.85;;;1.63;;
48552;SDS011;34335;51.566;6.994;2024-02-21T09:56:24;2.40;;;1.20;;
48552;SDS011;34335;51.566;6.994;2024-02-21T09:58:50;4.95;;;2.10;;
48552;SDS011;34335;51.566;6.994;2024-02-21T10:01:15;3.33;;;1.40;;
48552;SDS011;34335;51.566;6.994;2024-02-21T10:03:41;5.60;;;1.75;;
48552;SDS011;34335;51.566;6.994;2024-02-21T10:06:07;3.60;;;1.60;;
48552;SDS011;34335;51.566;6.994;2024-02-21T10:08:32;2.47;;;1.50;;
48552;SDS011;34335;51.566;6.994;2024-02-21T10:10:57;6.55;;;1.35;;
48552;SDS011;34335;51.566;6.994;2024-02-21T10:13:25;3.03;;;1.80;;
48552;SDS011;34335;51.566;6.994;2024-02-21T10:16:04;2.88;;;1.35;;
48552;SDS011;34335;51.566;6.994;2024-02-21T10:18:29;4.13;;;1.67;;
48552;SDS011;34335;51.566;6.994;2024-02-21T10:21:03;3.90;;;1.27;;
48552;SDS011;34335;51.566;6.994;2024-02-21T10:23:28;6.97;;;1.73;;
48552;SDS011;34335;51.566;6.994;2024-02-21T10:25:54;3.40;;;1.27;;
48552;SDS011;34335;51.566;6.994;2024-02-21T10:28:19;7.33;;;2.17;;
48552;SDS011;34335;51.566;6.994;2024-02-21T10:30:51;6.63;;;1.48;;
48552;SDS011;34335;51.566;6.994;2024-02-21T10:33:19;11.15;;;2.80;;
48552;SDS011;34335;51.566;6.994;2024-02-21T10:35:46;4.88;;;1.77;;
48552;SDS011;34335;51.566;6.994;2024-02-21T10:38:11;4.15;;;1.33;;
48552;SDS011;34335;51.566;6.994;2024-02-21T10:40:36;7.23;;;1.80;;
48552;SDS011;34335;51.566;6.994;2024-02-21T10:43:01;2.72;;;1.58;;
48552;SDS011;34335;51.566;6.994;2024-02-21T10:45:30;7.17;;;2.07;;
48552;SDS011;34335;51.566;6.994;2024-02-21T10:47:56;5.05;;;2.15;;
48552;SDS011;34335;51.566;6.994;2024-02-21T10:50:27;5.65;;;1.85;;
48552;SDS011;34335;51.566;6.994;2024-02-21T10:53:00;4.07;;;1.67;;
48552;SDS011;34335;51.566;6.994;2024-02-21T10:55:27;2.60;;;1.33;;
48552;SDS011;34335;51.566;6.994;2024-02-21T10:57:55;4.53;;;2.03;;
48552;SDS011;34335;51.566;6.994;2024-02-21T11:00:20;6.10;;;1.98;;
48552;SDS011;34335;51.566;6.994;2024-02-21T11:02:47;6.00;;;1.45;;
48552;SDS011;34335;51.566;6.994;2024-02-21T11:05:13;4.25;;;1.55;;
48552;SDS011;34335;51.566;6.994;2024-02-21T11:07:39;5.63;;;1.45;;
48552;SDS011;34335;51.566;6.994;2024-02-21T11:10:05;5.70;;;2.08;;
48552;SDS011;34335;51.566;6.994;2024-02-21T11:12:32;5.35;;;1.60;;
48552;SDS011;34335;51.566;6.994;2024-02-21T11:15:05;7.75;;;1.88;;
48552;SDS011;34335;51.566;6.994;2024-02-21T11:17:30;4.35;;;2.00;;
48552;SDS011;34335;51.566;6.994;2024-02-21T11:19:56;4.57;;;1.77;;
48552;SDS011;34335;51.566;6.994;2024-02-21T11:22:21;4.30;;;1.73;;
48552;SDS011;34335;51.566;6.994;2024-02-21T11:24:49;7.20;;;2.00;;
48552;SDS011;34335;51.566;6.994;2024-02-21T11:27:15;3.00;;;1.70;;
48552;SDS011;34335;51.566;6.994;2024-02-21T11:29:48;3.78;;;1.70;;
48552;SDS011;34335;51.566;6.994;2024-02-21T11:32:16;3.40;;;1.60;;
48552;SDS011;34335;51.566;6.994;2024-02-21T11:34:52;4.00;;;1.85;;
48552;SDS011;34335;51.566;6.994;2024-02-21T11:37:18;8.07;;;1.73;;
48552;SDS011;34335;51.566;6.994;2024-02-21T11:39:43;5.10;;;2.47;;
48552;SDS011;34335;51.566;6.994;2024-02-21T11:42:09;10.30;;;2.10;;
48552;SDS011;34335;51.566;6.994;2024-02-21T11:44:35;7.50;;;1.83;;
48552;SDS011;34335;51.566;6.994;2024-02-21T11:47:00;5.63;;;2.65;;
48552;SDS011;34335;51.566;6.994;2024-02-21T11:49:26;4.13;;;2.13;;
48552;SDS011;34335;51.566;6.994;2024-02-21T11:52:01;4.53;;;1.63;;
48552;SDS011;34335;51.566;6.994;2024-02-21T11:54:29;3.13;;;1.92;;
48552;SDS011;34335;51.566;6.994;2024-02-21T11:56:54;7.07;;;1.90;;
48552;SDS011;34335;51.566;6.994;2024-02-21T11:59:19;5.77;;;2.23;;
48552;SDS011;34335;51.566;6.994;2024-02-21T12:01:44;5.63;;;2.20;;
48552;SDS011;34335;51.566;6.994;2024-02-21T12:04:10;4.00;;;2.00;;
48552;SDS011;34335;51.566;6.994;2024-02-21T12:06:35;4.45;;;1.45;;
48552;SDS011;34335;51.566;6.994;2024-02-21T12:09:00;7.53;;;2.47;;
48552;SDS011;34335;51.566;6.994;2024-02-21T12:11:25;7.63;;;2.63;;
48552;SDS011;34335;51.566;6.994;2024-02-21T12:14:00;7.43;;;1.70;;
48552;SDS011;34335;51.566;6.994;2024-02-21T12:16:29;6.47;;;2.33;;
48552;SDS011;34335;51.566;6.994;2024-02-21T12:18:57;4.47;;;1.92;;
48552;SDS011;34335;51.566;6.994;2024-02-21T12:21:24;6.45;;;2.58;;
48552;SDS011;34335;51.566;6.994;2024-02-21T12:23:49;11.38;;;2.33;;
48552;SDS011;34335;51.566;6.994;2024-02-21T12:26:14;7.37;;;2.37;;
48552;SDS011;34335;51.566;6.994;2024-02-21T12:28:39;4.40;;;2.33;;
48552;SDS011;34335;51.566;6.994;2024-02-21T12:31:04;8.13;;;4.47;;
48552;SDS011;34335;51.566;6.994;2024-02-21T12:33:30;4.00;;;1.83;;
48552;SDS011;34335;51.566;6.994;2024-02-21T12:35:55;3.88;;;1.70;;
48552;SDS011;34335;51.566;6.994;2024-02-21T12:38:20;5.25;;;1.90;;
48552;SDS011;34335;51.566;6.994;2024-02-21T12:40:46;5.83;;;2.17;;
48552;SDS011;34335;51.566;6.994;2024-02-21T12:43:11;8.37;;;2.20;;
48552;SDS011;34335;51.566;6.994;2024-02-21T12:45:36;4.83;;;2.33;;
48552;SDS011;34335;51.566;6.994;2024-02-21T12:48:01;5.17;;;1.83;;
48552;SDS011;34335;51.566;6.994;2024-02-21T12:50:26;7.00;;;2.93;;
48552;SDS011;34335;51.566;6.994;2024-02-21T12:52:52;6.88;;;2.08;;
48552;SDS011;34335;51.566;6.994;2024-02-21T12:55:17;3.73;;;1.63;;
48552;SDS011;34335;51.566;6.994;2024-02-21T12:57:42;3.55;;;1.45;;
48552;SDS011;34335;51.566;6.994;2024-02-21T13:00:07;7.93;;;2.10;;
48552;SDS011;34335;51.566;6.994;2024-02-21T13:02:33;6.18;;;2.22;;
48552;SDS011;34335;51.566;6.994;2024-02-21T13:04:58;4.00;;;1.43;;
48552;SDS011;34335;51.566;6.994;2024-02-21T13:07:25;3.67;;;1.58;;
48552;SDS011;34335;51.566;6.994;2024-02-21T13:09:50;6.90;;;2.10;;
48552;SDS011;34335;51.566;6.994;2024-02-21T13:12:15;4.23;;;1.70;;
48552;SDS011;34335;51.566;6.994;2024-02-21T13:14:40;3.50;;;1.77;;
48552;SDS011;34335;51.566;6.994;2024-02-21T13:17:08;4.13;;;1.75;;
48552;SDS011;34335;51.566;6.994;2024-02-21T13:19:34;6.05;;;1.75;;
48552;SDS011;34335;51.566;6.994;2024-02-21T13:21:59;5.73;;;2.60;;
48552;SDS011;34335;51.566;6.994;2024-02-21T13:24:24;7.80;;;2.10;;
48552;SDS011;34335;51.566;6.994;2024-02-21T13:26:49;4.93;;;2.10;;
48552;SDS011;34335;51.566;6.994;2024-02-21T13:29:15;6.50;;;1.90;;
48552;SDS011;34335;51.566;6.994;2024-02-21T13:31:40;6.15;;;1.67;;
48552;SDS011;34335;51.566;6.994;2024-02-21T13:34:05;3.20;;;1.80;;
48552;SDS011;34335;51.566;6.994;2024-02-21T13:36:30;3.37;;;1.40;;
48552;SDS011;34335;51.566;6.994;2024-02-21T13:38:55;12.77;;;2.10;;
48552;SDS011;34335;51.566;6.994;2024-02-21T13:41:20;3.43;;;1.33;;
48552;SDS011;34335;51.566;6.994;2024-02-21T13:43:48;4.35;;;1.90;;
48552;SDS011;34335;51.566;6.994;2024-02-21T13:46:13;5.77;;;1.67;;
48552;SDS011;34335;51.566;6.994;2024-02-21T13:48:38;3.73;;;1.57;;
48552;SDS011;34335;51.566;6.994;2024-02-21T13:51:04;5.57;;;2.03;;
48552;SDS011;34335;51.566;6.994;2024-02-21T13:53:29;8.68;;;2.03;;
48552;SDS011;34335;51.566;6.994;2024-02-21T13:55:54;4.23;;;1.43;;
48552;SDS011;34335;51.566;6.994;2024-02-21T13:58:19;2.67;;;1.20;;
48552;SDS011;34335;51.566;6.994;2024-02-21T14:00:45;6.20;;;1.55;;
48552;SDS011;34335;51.566;6.994;2024-02-21T14:03:10;4.40;;;1.93;;
48552;SDS011;34335;51.566;6.994;2024-02-21T14:05:35;11.13;;;2.05;;
48552;SDS011;34335;51.566;6.994;2024-02-21T14:08:01;7.20;;;1.97;;
48552;SDS011;34335;51.566;6.994;2024-02-21T14:10:26;6.30;;;1.80;;
48552;SDS011;34335;51.566;6.994;2024-02-21T14:12:51;3.17;;;1.43;;
48552;SDS011;34335;51.566;6.994;2024-02-21T14:15:16;3.17;;;1.63;;
48552;SDS011;34335;51.566;6.994;2024-02-21T14:17:42;3.70;;;1.63;;
48552;SDS011;34335;51.566;6.994;2024-02-21T14:20:07;4.22;;;1.65;;
48552;SDS011;34335;51.566;6.994;2024-02-21T14:22:32;3.20;;;1.17;;
48552;SDS011;34335;51.566;6.994;2024-02-21T14:24:58;4.55;;;1.63;;
48552;SDS011;34335;51.566;6.994;2024-02-21T14:27:23;4.47;;;1.80;;
48552;SDS011;34335;51.566;6.994;2024-02-21T14:29:48;4.35;;;1.88;;
48552;SDS011;34335;51.566;6.994;2024-02-21T14:32:13;4.63;;;1.57;;
48552;SDS011;34335;51.566;6.994;2024-02-21T14:34:38;2.67;;;1.40;;
48552;SDS011;34335;51.566;6.994;2024-02-21T14:40:06;5.07;;;2.38;;